Meiners Oaks, California
Current Conditions -  °F | °C
As of 9:55 AM on Friday 28 Nov 2014 (Local Time) from KCMA Reporting Station
Clear Clear  
Wind Chill: 68°   Ceiling: Unl
Heat Index: 68°   Visibility: 10mi
Dew Point: 36°   Wind: 0mph
Humidity: 31%   Direction: NA
Pressure: 30"   Gusts: NA
Location:  34.5795°N, 119.124°W
Report Text: KCMA 281755Z 00000KT 10SM CLR 20/02 A3000 RMK AO2 SLP165 T02000022 10200 20072 52006
Loading
Personal Weather Stations






























Interactive Weather Map New forecast layout! Learn more

10-Day Weather Forecast

Advertisements
Track Severe Weather on mobile